Terminal Aerodrome Forecast
Issued by NWS Wichita, KS

Home | Current Version | Previous Version | Graphics & Text | Print | Product List | Glossary On
Versions: 1 2 3 4 5 6 7 8 9 10 11 12 13
480
FTUS43 KICT 111735
TAFICT
TAF
KICT 111735Z 1118/1218 33015G22KT P6SM SCT250
     FM111930 33020G28KT P6SM SCT250
     FM120200 35012G20KT P6SM FEW250
     FM120700 35009KT P6SM SKC
     FM121300 32005KT P6SM SKC=

USA.gov is the U.S. government's official web portal to all federal, state and local government web resources and services.